Aviation Digital Data Service (ADDS)

Output produced by METARs form (2021 UTC 18 July 2018)
found at http://www.aviationweather.gov/adds/metars/
 
EDDR 181950Z 01004KT CAVOK 20/10 Q1017 NOSIG
TAF EDDR 181700Z 1818/1918 35005KT CAVOK 
     BECMG 1822/1824 05005KT 
     BECMG 1912/1914 32005KT
       
ETAR 181956Z AUTO 03005KT 9999 CLR 18/13 A3003 RMK AO2 VIS 4400 RWY08/26 VIS 4000 RWY09 VIS 4400 RWY09/27 SLP165 T01820128 $
TAF ETAR 181814Z 1818/2000 34006KT 9999 FEW070 QNH3002INS 
     BECMG 1905/1906 06006KT 9999 FEW070 QNH3003INS TX28/1914Z TN12/1904Z